sensor_id;sensor_type;location;lat;lon;timestamp;P1;durP1;ratioP1;P2;durP2;ratioP2
12359;SDS011;6244;51.460;7.090;2024-01-25T00:01:17;4.10;;;0.93;;
12359;SDS011;6244;51.460;7.090;2024-01-25T00:06:14;1.90;;;0.82;;
12359;SDS011;6244;51.460;7.090;2024-01-25T00:11:12;2.50;;;2.05;;
12359;SDS011;6244;51.460;7.090;2024-01-25T00:16:08;1.17;;;0.85;;
12359;SDS011;6244;51.460;7.090;2024-01-25T00:21:05;6.57;;;1.27;;
12359;SDS011;6244;51.460;7.090;2024-01-25T00:26:01;13.02;;;2.45;;
12359;SDS011;6244;51.460;7.090;2024-01-25T00:30:59;2.92;;;1.45;;
12359;SDS011;6244;51.460;7.090;2024-01-25T00:35:56;1.08;;;1.05;;
12359;SDS011;6244;51.460;7.090;2024-01-25T00:40:53;3.72;;;2.08;;
12359;SDS011;6244;51.460;7.090;2024-01-25T00:45:51;0.70;;;0.70;;
12359;SDS011;6244;51.460;7.090;2024-01-25T00:50:50;7.28;;;3.80;;
12359;SDS011;6244;51.460;7.090;2024-01-25T00:55:47;1.48;;;1.08;;
12359;SDS011;6244;51.460;7.090;2024-01-25T01:00:45;3.72;;;1.70;;
12359;SDS011;6244;51.460;7.090;2024-01-25T01:05:42;2.05;;;1.50;;
12359;SDS011;6244;51.460;7.090;2024-01-25T01:10:40;3.33;;;1.33;;
12359;SDS011;6244;51.460;7.090;2024-01-25T01:15:36;7.57;;;2.33;;
12359;SDS011;6244;51.460;7.090;2024-01-25T01:20:36;1.83;;;1.67;;
12359;SDS011;6244;51.460;7.090;2024-01-25T01:25:33;1.92;;;1.35;;
12359;SDS011;6244;51.460;7.090;2024-01-25T01:30:31;3.92;;;1.65;;
12359;SDS011;6244;51.460;7.090;2024-01-25T01:35:27;3.08;;;0.85;;
12359;SDS011;6244;51.460;7.090;2024-01-25T01:40:24;3.88;;;2.20;;
12359;SDS011;6244;51.460;7.090;2024-01-25T01:45:20;1.35;;;1.35;;
12359;SDS011;6244;51.460;7.090;2024-01-25T01:50:18;4.28;;;1.15;;
12359;SDS011;6244;51.460;7.090;2024-01-25T01:55:16;4.43;;;2.00;;
12359;SDS011;6244;51.460;7.090;2024-01-25T02:00:12;3.47;;;1.95;;
12359;SDS011;6244;51.460;7.090;2024-01-25T02:05:11;1.38;;;1.25;;
12359;SDS011;6244;51.460;7.090;2024-01-25T02:10:09;1.15;;;1.05;;
12359;SDS011;6244;51.460;7.090;2024-01-25T02:15:06;3.00;;;1.02;;
12359;SDS011;6244;51.460;7.090;2024-01-25T02:20:03;7.00;;;2.65;;
12359;SDS011;6244;51.460;7.090;2024-01-25T02:25:02;2.05;;;1.13;;
12359;SDS011;6244;51.460;7.090;2024-01-25T02:30:00;2.33;;;1.20;;
12359;SDS011;6244;51.460;7.090;2024-01-25T02:34:56;2.78;;;1.42;;
12359;SDS011;6244;51.460;7.090;2024-01-25T02:39:53;2.15;;;1.25;;
12359;SDS011;6244;51.460;7.090;2024-01-25T02:44:51;1.52;;;1.42;;
12359;SDS011;6244;51.460;7.090;2024-01-25T02:49:47;4.97;;;1.92;;
12359;SDS011;6244;51.460;7.090;2024-01-25T02:54:44;3.08;;;1.35;;
12359;SDS011;6244;51.460;7.090;2024-01-25T02:59:41;0.98;;;0.90;;
12359;SDS011;6244;51.460;7.090;2024-01-25T03:04:39;0.80;;;0.80;;
12359;SDS011;6244;51.460;7.090;2024-01-25T03:09:35;1.80;;;1.38;;
12359;SDS011;6244;51.460;7.090;2024-01-25T03:14:31;6.63;;;1.88;;
12359;SDS011;6244;51.460;7.090;2024-01-25T03:19:28;6.78;;;2.08;;
12359;SDS011;6244;51.460;7.090;2024-01-25T03:24:26;7.45;;;2.05;;
12359;SDS011;6244;51.460;7.090;2024-01-25T03:29:23;1.60;;;1.50;;
12359;SDS011;6244;51.460;7.090;2024-01-25T03:34:19;4.35;;;1.42;;
12359;SDS011;6244;51.460;7.090;2024-01-25T03:39:16;7.80;;;1.65;;
12359;SDS011;6244;51.460;7.090;2024-01-25T03:44:14;0.88;;;0.88;;
12359;SDS011;6244;51.460;7.090;2024-01-25T03:49:10;4.25;;;1.20;;
12359;SDS011;6244;51.460;7.090;2024-01-25T03:54:07;0.80;;;0.80;;
12359;SDS011;6244;51.460;7.090;2024-01-25T03:59:03;0.75;;;0.75;;
12359;SDS011;6244;51.460;7.090;2024-01-25T04:04:06;2.17;;;1.33;;
12359;SDS011;6244;51.460;7.090;2024-01-25T04:09:05;0.68;;;0.68;;
12359;SDS011;6244;51.460;7.090;2024-01-25T04:14:02;1.10;;;1.10;;
12359;SDS011;6244;51.460;7.090;2024-01-25T04:18:59;1.17;;;1.13;;
12359;SDS011;6244;51.460;7.090;2024-01-25T04:23:57;1.95;;;1.20;;
12359;SDS011;6244;51.460;7.090;2024-01-25T04:28:54;2.20;;;1.02;;
12359;SDS011;6244;51.460;7.090;2024-01-25T04:33:51;1.05;;;0.95;;
12359;SDS011;6244;51.460;7.090;2024-01-25T04:38:47;1.08;;;0.98;;
12359;SDS011;6244;51.460;7.090;2024-01-25T04:43:45;1.13;;;0.88;;
12359;SDS011;6244;51.460;7.090;2024-01-25T04:48:42;6.25;;;2.08;;
12359;SDS011;6244;51.460;7.090;2024-01-25T04:53:38;1.33;;;0.90;;
12359;SDS011;6244;51.460;7.090;2024-01-25T04:58:35;1.05;;;0.98;;
12359;SDS011;6244;51.460;7.090;2024-01-25T05:03:33;1.10;;;1.10;;
12359;SDS011;6244;51.460;7.090;2024-01-25T05:08:29;2.00;;;1.52;;
12359;SDS011;6244;51.460;7.090;2024-01-25T05:13:26;3.45;;;1.55;;
12359;SDS011;6244;51.460;7.090;2024-01-25T05:18:22;0.77;;;0.77;;
12359;SDS011;6244;51.460;7.090;2024-01-25T05:23:20;1.13;;;1.10;;
12359;SDS011;6244;51.460;7.090;2024-01-25T05:28:17;1.02;;;1.02;;
12359;SDS011;6244;51.460;7.090;2024-01-25T05:33:13;3.55;;;1.85;;
12359;SDS011;6244;51.460;7.090;2024-01-25T05:38:10;1.20;;;1.17;;
12359;SDS011;6244;51.460;7.090;2024-01-25T05:43:08;4.80;;;0.93;;
12359;SDS011;6244;51.460;7.090;2024-01-25T05:48:04;0.70;;;0.70;;
12359;SDS011;6244;51.460;7.090;2024-01-25T05:53:01;1.02;;;1.02;;
12359;SDS011;6244;51.460;7.090;2024-01-25T05:57:58;3.60;;;2.00;;
12359;SDS011;6244;51.460;7.090;2024-01-25T06:02:56;0.90;;;0.90;;
12359;SDS011;6244;51.460;7.090;2024-01-25T06:07:52;1.10;;;0.98;;
12359;SDS011;6244;51.460;7.090;2024-01-25T06:12:49;0.95;;;0.93;;
12359;SDS011;6244;51.460;7.090;2024-01-25T06:17:45;1.58;;;1.17;;
12359;SDS011;6244;51.460;7.090;2024-01-25T06:22:43;1.13;;;1.13;;
12359;SDS011;6244;51.460;7.090;2024-01-25T06:27:40;1.15;;;1.13;;
12359;SDS011;6244;51.460;7.090;2024-01-25T06:32:36;1.88;;;1.30;;
12359;SDS011;6244;51.460;7.090;2024-01-25T06:37:33;1.25;;;1.15;;
12359;SDS011;6244;51.460;7.090;2024-01-25T06:42:31;1.02;;;1.02;;
12359;SDS011;6244;51.460;7.090;2024-01-25T06:47:28;1.63;;;1.52;;
12359;SDS011;6244;51.460;7.090;2024-01-25T06:52:24;4.53;;;2.03;;
12359;SDS011;6244;51.460;7.090;2024-01-25T06:57:21;12.32;;;1.73;;
12359;SDS011;6244;51.460;7.090;2024-01-25T07:02:19;1.67;;;1.58;;
12359;SDS011;6244;51.460;7.090;2024-01-25T07:07:16;1.27;;;1.02;;
12359;SDS011;6244;51.460;7.090;2024-01-25T07:12:12;3.42;;;1.60;;
12359;SDS011;6244;51.460;7.090;2024-01-25T07:17:09;1.88;;;1.55;;
12359;SDS011;6244;51.460;7.090;2024-01-25T07:22:07;1.25;;;1.15;;
12359;SDS011;6244;51.460;7.090;2024-01-25T07:27:03;1.38;;;1.33;;
12359;SDS011;6244;51.460;7.090;2024-01-25T07:32:00;1.42;;;1.20;;
12359;SDS011;6244;51.460;7.090;2024-01-25T07:36:57;1.80;;;1.48;;
12359;SDS011;6244;51.460;7.090;2024-01-25T07:41:55;1.25;;;0.80;;
12359;SDS011;6244;51.460;7.090;2024-01-25T07:46:52;2.42;;;1.73;;
12359;SDS011;6244;51.460;7.090;2024-01-25T07:51:48;1.80;;;1.70;;
12359;SDS011;6244;51.460;7.090;2024-01-25T07:56:45;2.92;;;1.73;;
12359;SDS011;6244;51.460;7.090;2024-01-25T08:01:43;3.50;;;2.08;;
12359;SDS011;6244;51.460;7.090;2024-01-25T08:06:39;2.08;;;1.88;;
12359;SDS011;6244;51.460;7.090;2024-01-25T08:11:36;1.33;;;1.23;;
12359;SDS011;6244;51.460;7.090;2024-01-25T08:16:32;3.78;;;2.47;;
12359;SDS011;6244;51.460;7.090;2024-01-25T08:21:31;2.05;;;1.52;;
12359;SDS011;6244;51.460;7.090;2024-01-25T08:26:28;1.25;;;1.15;;
12359;SDS011;6244;51.460;7.090;2024-01-25T08:31:24;1.65;;;1.55;;
12359;SDS011;6244;51.460;7.090;2024-01-25T08:36:21;4.47;;;2.03;;
12359;SDS011;6244;51.460;7.090;2024-01-25T08:41:19;4.95;;;2.45;;
12359;SDS011;6244;51.460;7.090;2024-01-25T08:46:16;2.63;;;2.42;;
12359;SDS011;6244;51.460;7.090;2024-01-25T08:51:12;2.60;;;2.40;;
12359;SDS011;6244;51.460;7.090;2024-01-25T08:56:09;3.85;;;3.22;;
12359;SDS011;6244;51.460;7.090;2024-01-25T09:01:07;6.25;;;3.38;;
12359;SDS011;6244;51.460;7.090;2024-01-25T09:06:03;2.53;;;2.30;;
12359;SDS011;6244;51.460;7.090;2024-01-25T09:11:02;3.28;;;2.45;;
12359;SDS011;6244;51.460;7.090;2024-01-25T09:15:58;6.60;;;2.88;;
12359;SDS011;6244;51.460;7.090;2024-01-25T09:20:56;12.75;;;3.28;;
12359;SDS011;6244;51.460;7.090;2024-01-25T09:25:52;5.68;;;3.03;;
12359;SDS011;6244;51.460;7.090;2024-01-25T09:30:49;5.05;;;2.88;;
12359;SDS011;6244;51.460;7.090;2024-01-25T09:35:45;4.63;;;3.42;;
12359;SDS011;6244;51.460;7.090;2024-01-25T09:40:45;4.70;;;3.15;;
12359;SDS011;6244;51.460;7.090;2024-01-25T09:45:41;5.95;;;3.72;;
12359;SDS011;6244;51.460;7.090;2024-01-25T09:50:39;7.00;;;3.63;;
12359;SDS011;6244;51.460;7.090;2024-01-25T09:55:35;8.52;;;4.15;;
12359;SDS011;6244;51.460;7.090;2024-01-25T10:00:39;6.93;;;4.07;;
12359;SDS011;6244;51.460;7.090;2024-01-25T10:05:37;3.13;;;2.45;;
12359;SDS011;6244;51.460;7.090;2024-01-25T10:10:34;8.02;;;4.10;;
12359;SDS011;6244;51.460;7.090;2024-01-25T10:15:30;9.27;;;4.38;;
12359;SDS011;6244;51.460;7.090;2024-01-25T10:20:30;10.38;;;5.95;;
12359;SDS011;6244;51.460;7.090;2024-01-25T10:25:27;7.00;;;3.42;;
12359;SDS011;6244;51.460;7.090;2024-01-25T10:30:23;7.72;;;2.47;;
12359;SDS011;6244;51.460;7.090;2024-01-25T10:35:20;7.60;;;4.72;;
12359;SDS011;6244;51.460;7.090;2024-01-25T10:40:18;5.97;;;3.70;;
12359;SDS011;6244;51.460;7.090;2024-01-25T10:45:15;1.67;;;1.45;;
12359;SDS011;6244;51.460;7.090;2024-01-25T10:50:12;8.32;;;4.07;;
12359;SDS011;6244;51.460;7.090;2024-01-25T10:55:09;7.70;;;4.97;;
12359;SDS011;6244;51.460;7.090;2024-01-25T11:00:10;4.85;;;3.50;;
12359;SDS011;6244;51.460;7.090;2024-01-25T11:05:10;6.80;;;2.08;;
12359;SDS011;6244;51.460;7.090;2024-01-25T11:10:09;3.30;;;3.00;;
12359;SDS011;6244;51.460;7.090;2024-01-25T11:15:18;4.25;;;2.30;;
12359;SDS011;6244;51.460;7.090;2024-01-25T11:25:19;3.50;;;1.95;;
12359;SDS011;6244;51.460;7.090;2024-01-25T11:30:18;4.00;;;2.00;;
12359;SDS011;6244;51.460;7.090;2024-01-25T11:35:15;2.45;;;1.40;;
12359;SDS011;6244;51.460;7.090;2024-01-25T11:40:13;2.58;;;1.90;;
12359;SDS011;6244;51.460;7.090;2024-01-25T11:45:11;8.57;;;2.67;;
12359;SDS011;6244;51.460;7.090;2024-01-25T11:50:10;5.90;;;2.63;;
12359;SDS011;6244;51.460;7.090;2024-01-25T11:55:08;8.40;;;2.72;;
12359;SDS011;6244;51.460;7.090;2024-01-25T12:00:06;1.45;;;1.20;;
12359;SDS011;6244;51.460;7.090;2024-01-25T12:05:05;2.17;;;1.40;;
12359;SDS011;6244;51.460;7.090;2024-01-25T12:10:04;3.70;;;1.50;;
12359;SDS011;6244;51.460;7.090;2024-01-25T12:15:04;5.88;;;2.10;;
12359;SDS011;6244;51.460;7.090;2024-01-25T12:20:02;2.38;;;1.70;;
12359;SDS011;6244;51.460;7.090;2024-01-25T12:25:07;1.83;;;1.60;;
12359;SDS011;6244;51.460;7.090;2024-01-25T12:30:08;1.63;;;1.52;;
12359;SDS011;6244;51.460;7.090;2024-01-25T12:35:05;3.70;;;2.22;;
12359;SDS011;6244;51.460;7.090;2024-01-25T12:40:03;8.57;;;3.40;;
12359;SDS011;6244;51.460;7.090;2024-01-25T12:45:02;3.55;;;2.47;;
12359;SDS011;6244;51.460;7.090;2024-01-25T12:49:59;3.13;;;2.53;;
12359;SDS011;6244;51.460;7.090;2024-01-25T12:54:55;10.20;;;3.08;;
12359;SDS011;6244;51.460;7.090;2024-01-25T12:59:52;3.70;;;2.95;;
12359;SDS011;6244;51.460;7.090;2024-01-25T13:04:50;3.88;;;2.72;;
12359;SDS011;6244;51.460;7.090;2024-01-25T13:09:46;3.83;;;1.98;;
12359;SDS011;6244;51.460;7.090;2024-01-25T13:14:43;3.80;;;2.40;;
12359;SDS011;6244;51.460;7.090;2024-01-25T13:19:39;9.40;;;3.17;;
12359;SDS011;6244;51.460;7.090;2024-01-25T13:24:37;8.27;;;3.03;;
12359;SDS011;6244;51.460;7.090;2024-01-25T13:29:34;12.95;;;2.78;;
12359;SDS011;6244;51.460;7.090;2024-01-25T13:34:31;2.15;;;1.95;;
12359;SDS011;6244;51.460;7.090;2024-01-25T13:39:27;5.13;;;2.45;;
12359;SDS011;6244;51.460;7.090;2024-01-25T13:44:25;17.05;;;4.07;;
12359;SDS011;6244;51.460;7.090;2024-01-25T13:49:22;1.30;;;1.20;;
12359;SDS011;6244;51.460;7.090;2024-01-25T13:54:18;5.25;;;2.70;;
12359;SDS011;6244;51.460;7.090;2024-01-25T13:59:15;1.15;;;1.10;;
12359;SDS011;6244;51.460;7.090;2024-01-25T14:04:12;4.57;;;2.42;;
12359;SDS011;6244;51.460;7.090;2024-01-25T14:09:10;4.22;;;2.00;;
12359;SDS011;6244;51.460;7.090;2024-01-25T14:14:07;3.10;;;2.35;;
12359;SDS011;6244;51.460;7.090;2024-01-25T14:19:03;3.70;;;1.88;;
12359;SDS011;6244;51.460;7.090;2024-01-25T14:24:01;3.22;;;1.50;;
12359;SDS011;6244;51.460;7.090;2024-01-25T14:28:58;1.60;;;1.50;;
12359;SDS011;6244;51.460;7.090;2024-01-25T14:33:54;2.30;;;1.92;;
12359;SDS011;6244;51.460;7.090;2024-01-25T14:38:50;5.22;;;2.80;;
12359;SDS011;6244;51.460;7.090;2024-01-25T14:43:48;4.82;;;3.17;;
12359;SDS011;6244;51.460;7.090;2024-01-25T14:48:45;11.10;;;2.67;;
12359;SDS011;6244;51.460;7.090;2024-01-25T14:53:41;3.63;;;2.13;;
12359;SDS011;6244;51.460;7.090;2024-01-25T14:58:38;5.40;;;2.78;;
12359;SDS011;6244;51.460;7.090;2024-01-25T15:03:36;9.18;;;4.55;;
12359;SDS011;6244;51.460;7.090;2024-01-25T15:08:33;5.97;;;2.85;;
12359;SDS011;6244;51.460;7.090;2024-01-25T15:13:29;6.88;;;3.10;;
12359;SDS011;6244;51.460;7.090;2024-01-25T15:18:26;5.10;;;2.80;;
12359;SDS011;6244;51.460;7.090;2024-01-25T15:23:23;7.22;;;2.78;;
12359;SDS011;6244;51.460;7.090;2024-01-25T15:28:20;6.28;;;2.75;;
12359;SDS011;6244;51.460;7.090;2024-01-25T15:33:17;4.68;;;3.08;;
12359;SDS011;6244;51.460;7.090;2024-01-25T15:38:13;6.85;;;2.50;;
12359;SDS011;6244;51.460;7.090;2024-01-25T15:43:14;5.47;;;2.58;;
12359;SDS011;6244;51.460;7.090;2024-01-25T15:48:11;7.95;;;3.05;;
12359;SDS011;6244;51.460;7.090;2024-01-25T15:53:07;5.50;;;2.05;;
12359;SDS011;6244;51.460;7.090;2024-01-25T15:58:06;9.52;;;2.88;;
12359;SDS011;6244;51.460;7.090;2024-01-25T16:03:04;7.63;;;3.47;;
12359;SDS011;6244;51.460;7.090;2024-01-25T16:08:00;7.28;;;2.90;;
12359;SDS011;6244;51.460;7.090;2024-01-25T16:12:57;10.20;;;3.30;;
12359;SDS011;6244;51.460;7.090;2024-01-25T16:17:53;5.15;;;2.25;;
12359;SDS011;6244;51.460;7.090;2024-01-25T16:22:51;7.93;;;2.65;;
12359;SDS011;6244;51.460;7.090;2024-01-25T16:27:48;11.70;;;4.20;;
12359;SDS011;6244;51.460;7.090;2024-01-25T16:32:46;7.80;;;2.88;;
12359;SDS011;6244;51.460;7.090;2024-01-25T16:37:43;4.00;;;2.22;;
12359;SDS011;6244;51.460;7.090;2024-01-25T16:42:41;5.22;;;1.85;;
12359;SDS011;6244;51.460;7.090;2024-01-25T16:47:37;5.75;;;2.05;;
12359;SDS011;6244;51.460;7.090;2024-01-25T16:52:34;6.97;;;2.85;;
12359;SDS011;6244;51.460;7.090;2024-01-25T16:57:30;9.43;;;3.38;;
12359;SDS011;6244;51.460;7.090;2024-01-25T17:02:28;6.38;;;2.65;;
12359;SDS011;6244;51.460;7.090;2024-01-25T17:07:25;5.80;;;2.58;;
12359;SDS011;6244;51.460;7.090;2024-01-25T17:12:21;4.85;;;3.08;;
12359;SDS011;6244;51.460;7.090;2024-01-25T17:17:18;8.07;;;1.90;;
12359;SDS011;6244;51.460;7.090;2024-01-25T17:22:17;7.50;;;2.42;;
12359;SDS011;6244;51.460;7.090;2024-01-25T17:27:14;5.20;;;2.03;;
12359;SDS011;6244;51.460;7.090;2024-01-25T17:32:10;4.15;;;2.83;;
12359;SDS011;6244;51.460;7.090;2024-01-25T17:37:07;4.88;;;1.88;;
12359;SDS011;6244;51.460;7.090;2024-01-25T17:42:05;5.88;;;2.55;;
12359;SDS011;6244;51.460;7.090;2024-01-25T17:47:02;2.95;;;1.75;;
12359;SDS011;6244;51.460;7.090;2024-01-25T17:51:59;3.35;;;2.17;;
12359;SDS011;6244;51.460;7.090;2024-01-25T17:56:55;4.50;;;1.60;;
12359;SDS011;6244;51.460;7.090;2024-01-25T18:01:55;8.38;;;3.25;;
12359;SDS011;6244;51.460;7.090;2024-01-25T18:06:52;8.15;;;2.42;;
12359;SDS011;6244;51.460;7.090;2024-01-25T18:11:48;7.80;;;2.10;;
12359;SDS011;6244;51.460;7.090;2024-01-25T18:16:46;1.27;;;1.20;;
12359;SDS011;6244;51.460;7.090;2024-01-25T18:21:44;6.28;;;1.98;;
12359;SDS011;6244;51.460;7.090;2024-01-25T18:26:41;2.88;;;1.73;;
12359;SDS011;6244;51.460;7.090;2024-01-25T18:31:38;4.32;;;1.50;;
12359;SDS011;6244;51.460;7.090;2024-01-25T18:36:34;4.53;;;1.95;;
12359;SDS011;6244;51.460;7.090;2024-01-25T18:41:35;2.03;;;1.58;;
12359;SDS011;6244;51.460;7.090;2024-01-25T18:46:32;2.30;;;1.63;;
12359;SDS011;6244;51.460;7.090;2024-01-25T18:51:30;3.63;;;2.13;;
12359;SDS011;6244;51.460;7.090;2024-01-25T18:56:27;2.03;;;1.58;;
12359;SDS011;6244;51.460;7.090;2024-01-25T19:01:25;4.47;;;2.30;;
12359;SDS011;6244;51.460;7.090;2024-01-25T19:06:23;2.40;;;1.40;;
12359;SDS011;6244;51.460;7.090;2024-01-25T19:11:24;3.05;;;2.30;;
12359;SDS011;6244;51.460;7.090;2024-01-25T19:16:21;3.20;;;2.08;;
12359;SDS011;6244;51.460;7.090;2024-01-25T19:21:18;1.75;;;1.60;;
12359;SDS011;6244;51.460;7.090;2024-01-25T19:26:15;2.13;;;1.38;;
12359;SDS011;6244;51.460;7.090;2024-01-25T19:31:15;1.98;;;1.70;;
12359;SDS011;6244;51.460;7.090;2024-01-25T19:36:11;2.50;;;2.10;;
12359;SDS011;6244;51.460;7.090;2024-01-25T19:41:13;3.97;;;1.63;;
12359;SDS011;6244;51.460;7.090;2024-01-25T19:46:10;1.85;;;1.70;;
12359;SDS011;6244;51.460;7.090;2024-01-25T19:51:06;4.38;;;2.08;;
12359;SDS011;6244;51.460;7.090;2024-01-25T19:56:03;2.50;;;1.92;;
12359;SDS011;6244;51.460;7.090;2024-01-25T20:01:02;3.15;;;2.15;;
12359;SDS011;6244;51.460;7.090;2024-01-25T20:05:59;3.67;;;1.98;;
12359;SDS011;6244;51.460;7.090;2024-01-25T20:10:57;2.63;;;1.48;;
12359;SDS011;6244;51.460;7.090;2024-01-25T20:15:53;2.63;;;1.80;;
12359;SDS011;6244;51.460;7.090;2024-01-25T20:20:51;2.97;;;1.60;;
12359;SDS011;6244;51.460;7.090;2024-01-25T20:25:48;3.85;;;2.03;;
12359;SDS011;6244;51.460;7.090;2024-01-25T20:30:45;8.20;;;2.53;;
12359;SDS011;6244;51.460;7.090;2024-01-25T20:35:42;6.72;;;3.10;;
12359;SDS011;6244;51.460;7.090;2024-01-25T20:40:40;11.05;;;3.30;;
12359;SDS011;6244;51.460;7.090;2024-01-25T20:45:37;6.60;;;3.60;;
12359;SDS011;6244;51.460;7.090;2024-01-25T20:50:35;2.40;;;2.20;;
12359;SDS011;6244;51.460;7.090;2024-01-25T20:55:31;6.07;;;3.25;;
12359;SDS011;6244;51.460;7.090;2024-01-25T21:00:30;6.05;;;3.22;;
12359;SDS011;6244;51.460;7.090;2024-01-25T21:05:27;5.97;;;2.85;;
12359;SDS011;6244;51.460;7.090;2024-01-25T21:10:24;7.72;;;3.22;;
12359;SDS011;6244;51.460;7.090;2024-01-25T21:15:22;5.90;;;3.58;;
12359;SDS011;6244;51.460;7.090;2024-01-25T21:20:20;9.02;;;3.90;;
12359;SDS011;6244;51.460;7.090;2024-01-25T21:25:17;4.25;;;2.22;;
12359;SDS011;6244;51.460;7.090;2024-01-25T21:30:13;4.72;;;1.90;;
12359;SDS011;6244;51.460;7.090;2024-01-25T21:35:10;6.45;;;4.45;;
12359;SDS011;6244;51.460;7.090;2024-01-25T21:40:08;7.13;;;2.92;;
12359;SDS011;6244;51.460;7.090;2024-01-25T21:45:06;7.30;;;4.13;;
12359;SDS011;6244;51.460;7.090;2024-01-25T21:50:03;14.73;;;5.18;;
12359;SDS011;6244;51.460;7.090;2024-01-25T21:55:03;5.60;;;3.15;;
12359;SDS011;6244;51.460;7.090;2024-01-25T22:00:03;9.70;;;3.55;;
12359;SDS011;6244;51.460;7.090;2024-01-25T22:05:00;7.85;;;3.65;;
12359;SDS011;6244;51.460;7.090;2024-01-25T22:09:56;7.05;;;3.92;;
12359;SDS011;6244;51.460;7.090;2024-01-25T22:14:53;5.13;;;3.95;;
12359;SDS011;6244;51.460;7.090;2024-01-25T22:19:51;7.93;;;3.55;;
12359;SDS011;6244;51.460;7.090;2024-01-25T22:24:47;10.43;;;4.07;;
12359;SDS011;6244;51.460;7.090;2024-01-25T22:29:44;4.40;;;3.10;;
12359;SDS011;6244;51.460;7.090;2024-01-25T22:34:40;8.10;;;2.97;;
12359;SDS011;6244;51.460;7.090;2024-01-25T22:39:38;5.05;;;2.90;;
12359;SDS011;6244;51.460;7.090;2024-01-25T22:44:35;8.05;;;4.10;;
12359;SDS011;6244;51.460;7.090;2024-01-25T22:49:34;8.40;;;4.03;;
12359;SDS011;6244;51.460;7.090;2024-01-25T22:54:31;7.63;;;3.55;;
12359;SDS011;6244;51.460;7.090;2024-01-25T22:59:29;2.78;;;2.53;;
12359;SDS011;6244;51.460;7.090;2024-01-25T23:04:25;7.40;;;4.85;;
12359;SDS011;6244;51.460;7.090;2024-01-25T23:09:22;1.88;;;1.77;;
12359;SDS011;6244;51.460;7.090;2024-01-25T23:14:18;6.10;;;3.50;;
12359;SDS011;6244;51.460;7.090;2024-01-25T23:19:16;3.30;;;2.70;;
12359;SDS011;6244;51.460;7.090;2024-01-25T23:24:13;4.25;;;3.00;;
12359;SDS011;6244;51.460;7.090;2024-01-25T23:29:09;6.07;;;3.15;;
12359;SDS011;6244;51.460;7.090;2024-01-25T23:34:05;3.35;;;2.55;;
12359;SDS011;6244;51.460;7.090;2024-01-25T23:39:03;5.60;;;4.38;;
12359;SDS011;6244;51.460;7.090;2024-01-25T23:44:00;7.45;;;3.58;;
12359;SDS011;6244;51.460;7.090;2024-01-25T23:48:56;3.88;;;2.78;;
12359;SDS011;6244;51.460;7.090;2024-01-25T23:53:53;6.95;;;3.13;;
12359;SDS011;6244;51.460;7.090;2024-01-25T23:58:51;2.47;;;2.03;;
